sensor_id;sensor_type;location;lat;lon;timestamp;P1;durP1;ratioP1;P2;durP2;ratioP2
39128;SDS011;24864;49.940;19.770;2022-12-29T00:01:08;7.07;;;3.70;;
39128;SDS011;24864;49.940;19.770;2022-12-29T00:03:38;9.80;;;3.90;;
39128;SDS011;24864;49.940;19.770;2022-12-29T00:06:06;5.85;;;3.45;;
39128;SDS011;24864;49.940;19.770;2022-12-29T00:08:35;9.70;;;3.80;;
39128;SDS011;24864;49.940;19.770;2022-12-29T00:11:12;8.45;;;4.15;;
39128;SDS011;24864;49.940;19.770;2022-12-29T00:13:42;8.00;;;4.10;;
39128;SDS011;24864;49.940;19.770;2022-12-29T00:16:32;7.90;;;3.63;;
39128;SDS011;24864;49.940;19.770;2022-12-29T00:19:02;5.82;;;3.42;;
39128;SDS011;24864;49.940;19.770;2022-12-29T00:21:32;6.45;;;3.38;;
39128;SDS011;24864;49.940;19.770;2022-12-29T00:24:18;6.93;;;3.75;;
39128;SDS011;24864;49.940;19.770;2022-12-29T00:27:09;6.78;;;3.38;;
39128;SDS011;24864;49.940;19.770;2022-12-29T00:29:57;8.75;;;4.68;;
39128;SDS011;24864;49.940;19.770;2022-12-29T00:32:43;11.00;;;5.10;;
39128;SDS011;24864;49.940;19.770;2022-12-29T00:35:31;10.88;;;5.47;;
39128;SDS011;24864;49.940;19.770;2022-12-29T00:38:03;11.10;;;5.75;;
39128;SDS011;24864;49.940;19.770;2022-12-29T00:40:52;9.18;;;5.22;;
39128;SDS011;24864;49.940;19.770;2022-12-29T00:43:38;13.32;;;5.65;;
39128;SDS011;24864;49.940;19.770;2022-12-29T00:46:24;12.10;;;4.82;;
39128;SDS011;24864;49.940;19.770;2022-12-29T00:48:52;12.43;;;5.63;;
39128;SDS011;24864;49.940;19.770;2022-12-29T00:51:39;13.13;;;5.53;;
39128;SDS011;24864;49.940;19.770;2022-12-29T00:54:08;9.18;;;5.22;;
39128;SDS011;24864;49.940;19.770;2022-12-29T00:56:36;12.13;;;5.00;;
39128;SDS011;24864;49.940;19.770;2022-12-29T00:59:05;11.02;;;4.45;;
39128;SDS011;24864;49.940;19.770;2022-12-29T01:01:34;8.20;;;3.90;;
39128;SDS011;24864;49.940;19.770;2022-12-29T01:04:03;9.82;;;4.10;;
39128;SDS011;24864;49.940;19.770;2022-12-29T01:06:33;7.97;;;4.22;;
39128;SDS011;24864;49.940;19.770;2022-12-29T01:09:03;9.07;;;4.80;;
39128;SDS011;24864;49.940;19.770;2022-12-29T01:11:49;9.38;;;3.95;;
39128;SDS011;24864;49.940;19.770;2022-12-29T01:14:18;7.45;;;4.13;;
39128;SDS011;24864;49.940;19.770;2022-12-29T01:16:47;8.45;;;4.03;;
39128;SDS011;24864;49.940;19.770;2022-12-29T01:19:15;8.88;;;4.15;;
39128;SDS011;24864;49.940;19.770;2022-12-29T01:21:45;8.57;;;4.38;;
39128;SDS011;24864;49.940;19.770;2022-12-29T01:24:14;10.63;;;5.40;;
39128;SDS011;24864;49.940;19.770;2022-12-29T01:26:43;9.27;;;4.78;;
39128;SDS011;24864;49.940;19.770;2022-12-29T01:29:12;8.30;;;4.47;;
39128;SDS011;24864;49.940;19.770;2022-12-29T01:31:41;9.90;;;4.72;;
39128;SDS011;24864;49.940;19.770;2022-12-29T01:34:09;6.78;;;4.20;;
39128;SDS011;24864;49.940;19.770;2022-12-29T01:36:37;6.53;;;3.75;;
39128;SDS011;24864;49.940;19.770;2022-12-29T01:39:05;7.15;;;3.83;;
39128;SDS011;24864;49.940;19.770;2022-12-29T01:41:35;10.45;;;3.80;;
39128;SDS011;24864;49.940;19.770;2022-12-29T01:47:05;5.32;;;2.88;;
39128;SDS011;24864;49.940;19.770;2022-12-29T01:49:35;5.50;;;3.17;;
39128;SDS011;24864;49.940;19.770;2022-12-29T01:52:04;5.95;;;3.55;;
39128;SDS011;24864;49.940;19.770;2022-12-29T01:54:35;12.38;;;3.25;;
39128;SDS011;24864;49.940;19.770;2022-12-29T01:57:10;6.35;;;3.60;;
39128;SDS011;24864;49.940;19.770;2022-12-29T01:59:41;6.35;;;3.50;;
39128;SDS011;24864;49.940;19.770;2022-12-29T02:02:14;7.55;;;3.45;;
39128;SDS011;24864;49.940;19.770;2022-12-29T02:04:43;7.93;;;3.42;;
39128;SDS011;24864;49.940;19.770;2022-12-29T02:07:13;5.60;;;3.47;;
39128;SDS011;24864;49.940;19.770;2022-12-29T02:09:46;6.38;;;3.70;;
39128;SDS011;24864;49.940;19.770;2022-12-29T02:12:17;9.13;;;3.78;;
39128;SDS011;24864;49.940;19.770;2022-12-29T02:14:47;7.20;;;3.90;;
39128;SDS011;24864;49.940;19.770;2022-12-29T02:17:20;10.98;;;4.85;;
39128;SDS011;24864;49.940;19.770;2022-12-29T02:20:09;8.83;;;4.77;;
39128;SDS011;24864;49.940;19.770;2022-12-29T02:22:52;10.50;;;5.30;;
39128;SDS011;24864;49.940;19.770;2022-12-29T02:25:40;9.60;;;5.10;;
39128;SDS011;24864;49.940;19.770;2022-12-29T02:31:37;9.27;;;4.30;;
39128;SDS011;24864;49.940;19.770;2022-12-29T02:34:10;11.60;;;4.88;;
39128;SDS011;24864;49.940;19.770;2022-12-29T02:36:51;8.23;;;4.32;;
39128;SDS011;24864;49.940;19.770;2022-12-29T02:39:29;8.98;;;3.72;;
39128;SDS011;24864;49.940;19.770;2022-12-29T02:42:07;8.63;;;4.28;;
39128;SDS011;24864;49.940;19.770;2022-12-29T02:44:44;6.70;;;3.95;;
39128;SDS011;24864;49.940;19.770;2022-12-29T02:47:23;7.93;;;3.67;;
39128;SDS011;24864;49.940;19.770;2022-12-29T02:49:59;10.32;;;3.47;;
39128;SDS011;24864;49.940;19.770;2022-12-29T02:52:34;6.72;;;3.45;;
39128;SDS011;24864;49.940;19.770;2022-12-29T02:55:06;5.63;;;2.85;;
39128;SDS011;24864;49.940;19.770;2022-12-29T02:57:34;5.10;;;2.72;;
39128;SDS011;24864;49.940;19.770;2022-12-29T03:00:04;5.47;;;2.70;;
39128;SDS011;24864;49.940;19.770;2022-12-29T03:05:36;8.43;;;3.70;;
39128;SDS011;24864;49.940;19.770;2022-12-29T03:08:18;6.45;;;3.50;;
39128;SDS011;24864;49.940;19.770;2022-12-29T03:10:58;7.00;;;3.50;;
39128;SDS011;24864;49.940;19.770;2022-12-29T03:13:30;5.78;;;3.05;;
39128;SDS011;24864;49.940;19.770;2022-12-29T03:16:21;4.63;;;2.80;;
39128;SDS011;24864;49.940;19.770;2022-12-29T03:18:58;6.18;;;2.92;;
39128;SDS011;24864;49.940;19.770;2022-12-29T03:21:31;7.30;;;3.22;;
39128;SDS011;24864;49.940;19.770;2022-12-29T03:24:22;4.80;;;2.58;;
39128;SDS011;24864;49.940;19.770;2022-12-29T03:26:56;5.30;;;2.63;;
39128;SDS011;24864;49.940;19.770;2022-12-29T03:29:26;5.15;;;2.35;;
39128;SDS011;24864;49.940;19.770;2022-12-29T03:34:28;5.97;;;2.58;;
39128;SDS011;24864;49.940;19.770;2022-12-29T03:36:59;7.07;;;3.27;;
39128;SDS011;24864;49.940;19.770;2022-12-29T03:39:30;6.13;;;2.60;;
39128;SDS011;24864;49.940;19.770;2022-12-29T03:41:59;6.65;;;2.85;;
39128;SDS011;24864;49.940;19.770;2022-12-29T03:44:34;5.93;;;2.85;;
39128;SDS011;24864;49.940;19.770;2022-12-29T03:47:03;5.32;;;2.75;;
39128;SDS011;24864;49.940;19.770;2022-12-29T03:49:34;4.18;;;2.75;;
39128;SDS011;24864;49.940;19.770;2022-12-29T03:52:03;4.88;;;2.38;;
39128;SDS011;24864;49.940;19.770;2022-12-29T03:54:32;4.55;;;2.97;;
39128;SDS011;24864;49.940;19.770;2022-12-29T03:57:01;5.18;;;2.72;;
39128;SDS011;24864;49.940;19.770;2022-12-29T03:59:29;4.70;;;2.42;;
39128;SDS011;24864;49.940;19.770;2022-12-29T04:01:57;6.13;;;3.05;;
39128;SDS011;24864;49.940;19.770;2022-12-29T04:04:25;5.47;;;2.65;;
39128;SDS011;24864;49.940;19.770;2022-12-29T04:06:55;4.90;;;3.00;;
39128;SDS011;24864;49.940;19.770;2022-12-29T04:09:23;8.00;;;3.38;;
39128;SDS011;24864;49.940;19.770;2022-12-29T04:11:51;5.70;;;3.03;;
39128;SDS011;24864;49.940;19.770;2022-12-29T04:14:19;5.32;;;2.70;;
39128;SDS011;24864;49.940;19.770;2022-12-29T04:16:48;7.38;;;3.28;;
39128;SDS011;24864;49.940;19.770;2022-12-29T04:19:16;4.93;;;3.25;;
39128;SDS011;24864;49.940;19.770;2022-12-29T04:21:44;5.18;;;2.83;;
39128;SDS011;24864;49.940;19.770;2022-12-29T04:24:13;5.20;;;2.65;;
39128;SDS011;24864;49.940;19.770;2022-12-29T04:26:44;5.47;;;3.03;;
39128;SDS011;24864;49.940;19.770;2022-12-29T04:29:12;6.55;;;2.97;;
39128;SDS011;24864;49.940;19.770;2022-12-29T04:31:40;4.05;;;2.63;;
39128;SDS011;24864;49.940;19.770;2022-12-29T04:34:09;4.13;;;2.67;;
39128;SDS011;24864;49.940;19.770;2022-12-29T04:36:37;5.97;;;3.25;;
39128;SDS011;24864;49.940;19.770;2022-12-29T04:39:06;5.60;;;3.17;;
39128;SDS011;24864;49.940;19.770;2022-12-29T04:41:36;6.68;;;3.72;;
39128;SDS011;24864;49.940;19.770;2022-12-29T04:44:04;7.75;;;3.63;;
39128;SDS011;24864;49.940;19.770;2022-12-29T04:46:33;5.82;;;3.53;;
39128;SDS011;24864;49.940;19.770;2022-12-29T04:49:01;8.27;;;4.90;;
39128;SDS011;24864;49.940;19.770;2022-12-29T04:51:35;14.68;;;6.78;;
39128;SDS011;24864;49.940;19.770;2022-12-29T04:54:03;25.50;;;9.20;;
39128;SDS011;24864;49.940;19.770;2022-12-29T04:56:32;18.20;;;8.38;;
39128;SDS011;24864;49.940;19.770;2022-12-29T04:59:01;10.10;;;5.32;;
39128;SDS011;24864;49.940;19.770;2022-12-29T05:01:29;5.38;;;2.95;;
39128;SDS011;24864;49.940;19.770;2022-12-29T05:03:57;4.88;;;2.80;;
39128;SDS011;24864;49.940;19.770;2022-12-29T05:06:26;6.45;;;3.10;;
39128;SDS011;24864;49.940;19.770;2022-12-29T05:08:54;9.73;;;3.70;;
39128;SDS011;24864;49.940;19.770;2022-12-29T05:11:22;9.07;;;4.05;;
39128;SDS011;24864;49.940;19.770;2022-12-29T05:13:50;6.57;;;3.58;;
39128;SDS011;24864;49.940;19.770;2022-12-29T05:16:20;6.85;;;3.28;;
39128;SDS011;24864;49.940;19.770;2022-12-29T05:18:48;7.72;;;3.80;;
39128;SDS011;24864;49.940;19.770;2022-12-29T05:21:17;7.63;;;3.75;;
39128;SDS011;24864;49.940;19.770;2022-12-29T05:23:45;5.68;;;3.28;;
39128;SDS011;24864;49.940;19.770;2022-12-29T05:26:13;7.68;;;3.63;;
39128;SDS011;24864;49.940;19.770;2022-12-29T05:28:41;9.85;;;4.28;;
39128;SDS011;24864;49.940;19.770;2022-12-29T05:31:10;9.57;;;3.97;;
39128;SDS011;24864;49.940;19.770;2022-12-29T05:33:39;9.90;;;4.65;;
39128;SDS011;24864;49.940;19.770;2022-12-29T05:36:08;9.73;;;4.70;;
39128;SDS011;24864;49.940;19.770;2022-12-29T05:38:37;11.02;;;5.18;;
39128;SDS011;24864;49.940;19.770;2022-12-29T05:41:05;8.88;;;4.43;;
39128;SDS011;24864;49.940;19.770;2022-12-29T05:43:33;6.22;;;4.07;;
39128;SDS011;24864;49.940;19.770;2022-12-29T05:46:01;7.60;;;3.97;;
39128;SDS011;24864;49.940;19.770;2022-12-29T05:48:30;6.93;;;3.50;;
39128;SDS011;24864;49.940;19.770;2022-12-29T05:51:05;8.82;;;4.20;;
39128;SDS011;24864;49.940;19.770;2022-12-29T05:53:33;6.15;;;3.42;;
39128;SDS011;24864;49.940;19.770;2022-12-29T05:56:01;9.43;;;3.80;;
39128;SDS011;24864;49.940;19.770;2022-12-29T05:58:30;5.63;;;3.50;;
39128;SDS011;24864;49.940;19.770;2022-12-29T06:00:58;7.10;;;4.18;;
39128;SDS011;24864;49.940;19.770;2022-12-29T06:03:26;6.55;;;3.40;;
39128;SDS011;24864;49.940;19.770;2022-12-29T06:05:55;6.97;;;3.75;;
39128;SDS011;24864;49.940;19.770;2022-12-29T06:08:24;9.13;;;4.20;;
39128;SDS011;24864;49.940;19.770;2022-12-29T06:10:53;5.00;;;3.40;;
39128;SDS011;24864;49.940;19.770;2022-12-29T06:13:21;6.72;;;4.00;;
39128;SDS011;24864;49.940;19.770;2022-12-29T06:15:49;6.78;;;4.00;;
39128;SDS011;24864;49.940;19.770;2022-12-29T06:18:18;5.07;;;3.35;;
39128;SDS011;24864;49.940;19.770;2022-12-29T06:20:46;7.35;;;3.83;;
39128;SDS011;24864;49.940;19.770;2022-12-29T06:23:14;9.50;;;4.22;;
39128;SDS011;24864;49.940;19.770;2022-12-29T06:25:44;10.73;;;4.78;;
39128;SDS011;24864;49.940;19.770;2022-12-29T06:28:14;7.30;;;4.37;;
39128;SDS011;24864;49.940;19.770;2022-12-29T06:30:43;9.93;;;5.03;;
39128;SDS011;24864;49.940;19.770;2022-12-29T06:33:12;7.28;;;4.57;;
39128;SDS011;24864;49.940;19.770;2022-12-29T06:35:41;7.88;;;4.63;;
39128;SDS011;24864;49.940;19.770;2022-12-29T06:38:10;9.02;;;4.78;;
39128;SDS011;24864;49.940;19.770;2022-12-29T06:40:38;10.05;;;5.55;;
39128;SDS011;24864;49.940;19.770;2022-12-29T06:43:09;7.85;;;5.10;;
39128;SDS011;24864;49.940;19.770;2022-12-29T06:45:37;11.52;;;5.65;;
39128;SDS011;24864;49.940;19.770;2022-12-29T06:48:06;12.63;;;6.47;;
39128;SDS011;24864;49.940;19.770;2022-12-29T06:50:35;18.33;;;10.80;;
39128;SDS011;24864;49.940;19.770;2022-12-29T06:53:03;24.90;;;11.75;;
39128;SDS011;24864;49.940;19.770;2022-12-29T06:55:32;12.50;;;8.32;;
39128;SDS011;24864;49.940;19.770;2022-12-29T06:58:00;16.73;;;9.95;;
39128;SDS011;24864;49.940;19.770;2022-12-29T07:00:30;17.35;;;9.40;;
39128;SDS011;24864;49.940;19.770;2022-12-29T07:02:58;18.45;;;7.93;;
39128;SDS011;24864;49.940;19.770;2022-12-29T07:05:28;23.55;;;10.65;;
39128;SDS011;24864;49.940;19.770;2022-12-29T07:07:59;21.40;;;11.50;;
39128;SDS011;24864;49.940;19.770;2022-12-29T07:10:27;21.58;;;11.80;;
39128;SDS011;24864;49.940;19.770;2022-12-29T07:12:56;26.83;;;13.73;;
39128;SDS011;24864;49.940;19.770;2022-12-29T07:15:24;14.27;;;8.10;;
39128;SDS011;24864;49.940;19.770;2022-12-29T07:17:54;13.77;;;8.20;;
39128;SDS011;24864;49.940;19.770;2022-12-29T07:20:22;21.83;;;8.48;;
39128;SDS011;24864;49.940;19.770;2022-12-29T07:22:53;15.75;;;6.82;;
39128;SDS011;24864;49.940;19.770;2022-12-29T07:25:21;13.45;;;8.02;;
39128;SDS011;24864;49.940;19.770;2022-12-29T07:27:50;11.00;;;6.70;;
39128;SDS011;24864;49.940;19.770;2022-12-29T07:30:18;9.75;;;5.55;;
39128;SDS011;24864;49.940;19.770;2022-12-29T07:32:47;9.07;;;3.95;;
39128;SDS011;24864;49.940;19.770;2022-12-29T07:35:16;6.60;;;3.80;;
39128;SDS011;24864;49.940;19.770;2022-12-29T07:37:45;7.28;;;2.90;;
39128;SDS011;24864;49.940;19.770;2022-12-29T07:40:14;8.30;;;3.10;;
39128;SDS011;24864;49.940;19.770;2022-12-29T07:42:42;6.40;;;3.42;;
39128;SDS011;24864;49.940;19.770;2022-12-29T07:45:10;4.88;;;2.28;;
39128;SDS011;24864;49.940;19.770;2022-12-29T07:47:38;4.55;;;2.65;;
39128;SDS011;24864;49.940;19.770;2022-12-29T07:50:07;5.57;;;3.13;;
39128;SDS011;24864;49.940;19.770;2022-12-29T07:52:36;5.10;;;2.45;;
39128;SDS011;24864;49.940;19.770;2022-12-29T07:55:06;5.88;;;2.88;;
39128;SDS011;24864;49.940;19.770;2022-12-29T07:57:34;5.30;;;2.65;;
39128;SDS011;24864;49.940;19.770;2022-12-29T08:00:03;5.88;;;3.40;;
39128;SDS011;24864;49.940;19.770;2022-12-29T08:02:32;4.97;;;2.78;;
39128;SDS011;24864;49.940;19.770;2022-12-29T08:05:00;6.43;;;3.03;;
39128;SDS011;24864;49.940;19.770;2022-12-29T08:07:28;7.30;;;3.50;;
39128;SDS011;24864;49.940;19.770;2022-12-29T08:09:58;6.97;;;3.45;;
39128;SDS011;24864;49.940;19.770;2022-12-29T08:12:28;5.75;;;3.58;;
39128;SDS011;24864;49.940;19.770;2022-12-29T08:14:56;7.50;;;3.63;;
39128;SDS011;24864;49.940;19.770;2022-12-29T08:17:24;7.53;;;4.25;;
39128;SDS011;24864;49.940;19.770;2022-12-29T08:19:53;9.85;;;3.60;;
39128;SDS011;24864;49.940;19.770;2022-12-29T08:22:20;7.25;;;4.00;;
39128;SDS011;24864;49.940;19.770;2022-12-29T08:24:49;10.38;;;3.90;;
39128;SDS011;24864;49.940;19.770;2022-12-29T08:27:19;6.68;;;4.05;;
39128;SDS011;24864;49.940;19.770;2022-12-29T08:29:47;7.32;;;3.90;;
39128;SDS011;24864;49.940;19.770;2022-12-29T08:32:15;15.95;;;4.45;;
39128;SDS011;24864;49.940;19.770;2022-12-29T08:34:44;8.57;;;4.30;;
39128;SDS011;24864;49.940;19.770;2022-12-29T08:37:12;9.73;;;4.45;;
39128;SDS011;24864;49.940;19.770;2022-12-29T08:39:40;7.47;;;4.63;;
39128;SDS011;24864;49.940;19.770;2022-12-29T08:42:08;5.45;;;3.33;;
39128;SDS011;24864;49.940;19.770;2022-12-29T08:44:38;9.23;;;4.80;;
39128;SDS011;24864;49.940;19.770;2022-12-29T08:47:06;9.95;;;5.25;;
39128;SDS011;24864;49.940;19.770;2022-12-29T08:49:35;11.10;;;5.80;;
39128;SDS011;24864;49.940;19.770;2022-12-29T08:52:03;13.35;;;7.25;;
39128;SDS011;24864;49.940;19.770;2022-12-29T08:54:32;9.93;;;6.45;;
39128;SDS011;24864;49.940;19.770;2022-12-29T08:57:00;10.48;;;6.03;;
39128;SDS011;24864;49.940;19.770;2022-12-29T08:59:28;10.18;;;6.40;;
39128;SDS011;24864;49.940;19.770;2022-12-29T09:01:57;11.85;;;6.82;;
39128;SDS011;24864;49.940;19.770;2022-12-29T09:04:27;13.68;;;7.45;;
39128;SDS011;24864;49.940;19.770;2022-12-29T09:06:55;14.27;;;7.13;;
39128;SDS011;24864;49.940;19.770;2022-12-29T09:09:23;12.70;;;6.20;;
39128;SDS011;24864;49.940;19.770;2022-12-29T09:11:51;10.40;;;6.63;;
39128;SDS011;24864;49.940;19.770;2022-12-29T09:14:20;15.32;;;6.93;;
39128;SDS011;24864;49.940;19.770;2022-12-29T09:16:50;22.95;;;8.23;;
39128;SDS011;24864;49.940;19.770;2022-12-29T09:19:38;14.02;;;6.15;;
39128;SDS011;24864;49.940;19.770;2022-12-29T09:22:06;9.15;;;6.13;;
39128;SDS011;24864;49.940;19.770;2022-12-29T09:24:34;10.68;;;6.35;;
39128;SDS011;24864;49.940;19.770;2022-12-29T09:27:02;13.93;;;6.88;;
39128;SDS011;24864;49.940;19.770;2022-12-29T09:29:31;9.13;;;6.05;;
39128;SDS011;24864;49.940;19.770;2022-12-29T09:31:59;9.77;;;6.85;;
39128;SDS011;24864;49.940;19.770;2022-12-29T09:34:27;10.32;;;5.43;;
39128;SDS011;24864;49.940;19.770;2022-12-29T09:36:57;11.02;;;6.32;;
39128;SDS011;24864;49.940;19.770;2022-12-29T09:39:25;9.95;;;6.35;;
39128;SDS011;24864;49.940;19.770;2022-12-29T09:41:56;8.02;;;6.03;;
39128;SDS011;24864;49.940;19.770;2022-12-29T09:44:31;6.28;;;4.60;;
39128;SDS011;24864;49.940;19.770;2022-12-29T09:47:14;8.52;;;5.47;;
39128;SDS011;24864;49.940;19.770;2022-12-29T09:52:18;7.85;;;4.50;;
39128;SDS011;24864;49.940;19.770;2022-12-29T09:54:51;7.57;;;4.70;;
39128;SDS011;24864;49.940;19.770;2022-12-29T09:57:32;7.03;;;4.18;;
39128;SDS011;24864;49.940;19.770;2022-12-29T10:00:06;6.65;;;4.40;;
39128;SDS011;24864;49.940;19.770;2022-12-29T10:02:39;6.45;;;4.07;;
39128;SDS011;24864;49.940;19.770;2022-12-29T10:05:19;7.47;;;3.92;;
39128;SDS011;24864;49.940;19.770;2022-12-29T10:07:58;6.97;;;4.45;;
39128;SDS011;24864;49.940;19.770;2022-12-29T10:10:43;8.10;;;4.40;;
39128;SDS011;24864;49.940;19.770;2022-12-29T10:13:24;6.10;;;4.05;;
39128;SDS011;24864;49.940;19.770;2022-12-29T10:16:02;4.93;;;3.38;;
39128;SDS011;24864;49.940;19.770;2022-12-29T10:18:44;7.40;;;4.32;;
39128;SDS011;24864;49.940;19.770;2022-12-29T10:21:30;6.45;;;4.15;;
39128;SDS011;24864;49.940;19.770;2022-12-29T10:24:11;8.25;;;4.57;;
39128;SDS011;24864;49.940;19.770;2022-12-29T10:26:42;10.55;;;9.02;;
39128;SDS011;24864;49.940;19.770;2022-12-29T10:29:13;8.48;;;4.32;;
39128;SDS011;24864;49.940;19.770;2022-12-29T10:31:45;9.02;;;5.03;;
39128;SDS011;24864;49.940;19.770;2022-12-29T10:36:49;7.43;;;5.30;;
39128;SDS011;24864;49.940;19.770;2022-12-29T10:39:26;7.28;;;4.85;;
39128;SDS011;24864;49.940;19.770;2022-12-29T10:42:01;7.72;;;4.88;;
39128;SDS011;24864;49.940;19.770;2022-12-29T10:44:36;12.18;;;9.40;;
39128;SDS011;24864;49.940;19.770;2022-12-29T10:47:08;7.93;;;5.07;;
39128;SDS011;24864;49.940;19.770;2022-12-29T10:49:41;8.45;;;5.47;;
39128;SDS011;24864;49.940;19.770;2022-12-29T10:52:10;9.57;;;5.93;;
39128;SDS011;24864;49.940;19.770;2022-12-29T10:54:44;6.97;;;5.35;;
39128;SDS011;24864;49.940;19.770;2022-12-29T10:57:18;8.07;;;5.63;;
39128;SDS011;24864;49.940;19.770;2022-12-29T10:59:53;10.00;;;5.53;;
39128;SDS011;24864;49.940;19.770;2022-12-29T11:02:39;10.48;;;5.47;;
39128;SDS011;24864;49.940;19.770;2022-12-29T11:05:20;11.98;;;6.28;;
39128;SDS011;24864;49.940;19.770;2022-12-29T11:07:56;9.63;;;6.57;;
39128;SDS011;24864;49.940;19.770;2022-12-29T11:10:37;9.32;;;6.13;;
39128;SDS011;24864;49.940;19.770;2022-12-29T11:13:12;8.10;;;5.32;;
39128;SDS011;24864;49.940;19.770;2022-12-29T11:15:43;7.68;;;5.32;;
39128;SDS011;24864;49.940;19.770;2022-12-29T11:18:20;8.32;;;5.25;;
39128;SDS011;24864;49.940;19.770;2022-12-29T11:20:51;8.80;;;5.47;;
39128;SDS011;24864;49.940;19.770;2022-12-29T11:23:22;9.45;;;5.88;;
39128;SDS011;24864;49.940;19.770;2022-12-29T11:28:42;8.98;;;5.82;;
39128;SDS011;24864;49.940;19.770;2022-12-29T11:31:15;8.02;;;4.80;;
39128;SDS011;24864;49.940;19.770;2022-12-29T11:33:45;8.23;;;4.93;;
39128;SDS011;24864;49.940;19.770;2022-12-29T11:36:14;6.05;;;4.43;;
39128;SDS011;24864;49.940;19.770;2022-12-29T11:38:46;6.50;;;4.78;;
39128;SDS011;24864;49.940;19.770;2022-12-29T11:41:21;8.10;;;5.35;;
39128;SDS011;24864;49.940;19.770;2022-12-29T11:43:52;6.20;;;4.47;;
39128;SDS011;24864;49.940;19.770;2022-12-29T11:46:22;9.93;;;4.88;;
39128;SDS011;24864;49.940;19.770;2022-12-29T11:48:54;6.50;;;4.93;;
39128;SDS011;24864;49.940;19.770;2022-12-29T11:51:26;6.97;;;4.93;;
39128;SDS011;24864;49.940;19.770;2022-12-29T11:53:58;8.27;;;4.40;;
39128;SDS011;24864;49.940;19.770;2022-12-29T11:56:34;7.35;;;5.45;;
39128;SDS011;24864;49.940;19.770;2022-12-29T12:02:15;9.48;;;5.18;;
39128;SDS011;24864;49.940;19.770;2022-12-29T12:05:13;11.27;;;6.10;;
39128;SDS011;24864;49.940;19.770;2022-12-29T12:07:47;10.95;;;6.00;;
39128;SDS011;24864;49.940;19.770;2022-12-29T12:10:21;9.05;;;5.57;;
39128;SDS011;24864;49.940;19.770;2022-12-29T12:13:08;7.97;;;5.93;;
39128;SDS011;24864;49.940;19.770;2022-12-29T12:15:47;10.23;;;5.53;;
39128;SDS011;24864;49.940;19.770;2022-12-29T12:18:26;12.45;;;6.40;;
39128;SDS011;24864;49.940;19.770;2022-12-29T12:21:04;9.10;;;4.93;;
39128;SDS011;24864;49.940;19.770;2022-12-29T12:23:38;11.30;;;5.07;;
39128;SDS011;24864;49.940;19.770;2022-12-29T12:26:17;6.85;;;4.75;;
39128;SDS011;24864;49.940;19.770;2022-12-29T12:28:51;8.70;;;4.78;;
39128;SDS011;24864;49.940;19.770;2022-12-29T12:31:26;7.30;;;4.93;;
39128;SDS011;24864;49.940;19.770;2022-12-29T12:34:09;8.15;;;4.75;;
39128;SDS011;24864;49.940;19.770;2022-12-29T12:39:46;8.95;;;5.25;;
39128;SDS011;24864;49.940;19.770;2022-12-29T12:42:30;12.82;;;6.65;;
39128;SDS011;24864;49.940;19.770;2022-12-29T12:45:19;8.32;;;5.30;;
39128;SDS011;24864;49.940;19.770;2022-12-29T12:48:09;11.70;;;5.45;;
39128;SDS011;24864;49.940;19.770;2022-12-29T12:50:52;9.95;;;6.72;;
39128;SDS011;24864;49.940;19.770;2022-12-29T12:53:40;9.43;;;5.95;;
39128;SDS011;24864;49.940;19.770;2022-12-29T12:56:21;11.27;;;5.60;;
39128;SDS011;24864;49.940;19.770;2022-12-29T12:59:03;9.75;;;6.05;;
39128;SDS011;24864;49.940;19.770;2022-12-29T13:01:45;9.90;;;6.10;;
39128;SDS011;24864;49.940;19.770;2022-12-29T13:04:29;11.27;;;6.20;;
39128;SDS011;24864;49.940;19.770;2022-12-29T13:07:08;10.18;;;6.32;;
39128;SDS011;24864;49.940;19.770;2022-12-29T13:09:48;11.20;;;6.47;;
39128;SDS011;24864;49.940;19.770;2022-12-29T13:12:29;10.43;;;6.07;;
39128;SDS011;24864;49.940;19.770;2022-12-29T13:15:10;12.40;;;7.13;;
39128;SDS011;24864;49.940;19.770;2022-12-29T13:17:48;8.88;;;5.25;;
39128;SDS011;24864;49.940;19.770;2022-12-29T13:20:25;8.18;;;4.93;;
39128;SDS011;24864;49.940;19.770;2022-12-29T13:23:02;7.93;;;5.05;;
39128;SDS011;24864;49.940;19.770;2022-12-29T13:25:37;7.80;;;3.88;;
39128;SDS011;24864;49.940;19.770;2022-12-29T13:28:12;7.05;;;4.90;;
39128;SDS011;24864;49.940;19.770;2022-12-29T13:30:50;6.88;;;4.43;;
39128;SDS011;24864;49.940;19.770;2022-12-29T13:33:26;9.45;;;5.32;;
39128;SDS011;24864;49.940;19.770;2022-12-29T13:36:02;7.30;;;5.13;;
39128;SDS011;24864;49.940;19.770;2022-12-29T13:38:36;9.02;;;5.57;;
39128;SDS011;24864;49.940;19.770;2022-12-29T13:43:38;8.60;;;5.55;;
39128;SDS011;24864;49.940;19.770;2022-12-29T13:46:10;11.38;;;5.70;;
39128;SDS011;24864;49.940;19.770;2022-12-29T13:48:45;8.07;;;5.72;;
39128;SDS011;24864;49.940;19.770;2022-12-29T13:51:19;9.98;;;6.40;;
39128;SDS011;24864;49.940;19.770;2022-12-29T13:53:56;14.02;;;12.45;;
39128;SDS011;24864;49.940;19.770;2022-12-29T13:56:45;30.70;;;19.83;;
39128;SDS011;24864;49.940;19.770;2022-12-29T13:59:20;18.25;;;11.27;;
39128;SDS011;24864;49.940;19.770;2022-12-29T14:01:57;13.85;;;10.77;;
39128;SDS011;24864;49.940;19.770;2022-12-29T14:04:33;10.68;;;8.18;;
39128;SDS011;24864;49.940;19.770;2022-12-29T14:07:02;8.38;;;7.47;;
39128;SDS011;24864;49.940;19.770;2022-12-29T14:12:21;10.90;;;5.72;;
39128;SDS011;24864;49.940;19.770;2022-12-29T14:15:14;9.02;;;5.55;;
39128;SDS011;24864;49.940;19.770;2022-12-29T14:18:03;8.55;;;5.80;;
39128;SDS011;24864;49.940;19.770;2022-12-29T14:20:41;8.13;;;5.45;;
39128;SDS011;24864;49.940;19.770;2022-12-29T14:23:26;8.98;;;6.28;;
39128;SDS011;24864;49.940;19.770;2022-12-29T14:25:58;13.40;;;5.82;;
39128;SDS011;24864;49.940;19.770;2022-12-29T14:28:37;7.88;;;5.00;;
39128;SDS011;24864;49.940;19.770;2022-12-29T14:31:32;7.63;;;5.88;;
39128;SDS011;24864;49.940;19.770;2022-12-29T14:34:27;8.07;;;6.50;;
39128;SDS011;24864;49.940;19.770;2022-12-29T14:36:59;11.00;;;5.57;;
39128;SDS011;24864;49.940;19.770;2022-12-29T14:39:30;10.13;;;5.68;;
39128;SDS011;24864;49.940;19.770;2022-12-29T14:42:03;8.80;;;4.90;;
39128;SDS011;24864;49.940;19.770;2022-12-29T14:44:33;8.52;;;4.85;;
39128;SDS011;24864;49.940;19.770;2022-12-29T14:47:15;6.28;;;4.38;;
39128;SDS011;24864;49.940;19.770;2022-12-29T14:49:47;6.18;;;4.75;;
39128;SDS011;24864;49.940;19.770;2022-12-29T14:52:18;10.85;;;6.15;;
39128;SDS011;24864;49.940;19.770;2022-12-29T14:54:51;7.22;;;5.20;;
39128;SDS011;24864;49.940;19.770;2022-12-29T14:57:28;8.50;;;5.18;;
39128;SDS011;24864;49.940;19.770;2022-12-29T15:02:52;9.27;;;5.88;;
39128;SDS011;24864;49.940;19.770;2022-12-29T15:05:33;11.95;;;7.22;;
39128;SDS011;24864;49.940;19.770;2022-12-29T15:08:06;10.82;;;6.18;;
39128;SDS011;24864;49.940;19.770;2022-12-29T15:10:37;11.98;;;6.88;;
39128;SDS011;24864;49.940;19.770;2022-12-29T15:13:13;11.68;;;6.72;;
39128;SDS011;24864;49.940;19.770;2022-12-29T15:15:44;8.75;;;6.72;;
39128;SDS011;24864;49.940;19.770;2022-12-29T15:18:23;11.38;;;6.32;;
39128;SDS011;24864;49.940;19.770;2022-12-29T15:20:54;13.77;;;6.60;;
39128;SDS011;24864;49.940;19.770;2022-12-29T15:23:26;10.00;;;6.53;;
39128;SDS011;24864;49.940;19.770;2022-12-29T15:25:56;9.48;;;6.82;;
39128;SDS011;24864;49.940;19.770;2022-12-29T15:28:27;10.70;;;6.32;;
39128;SDS011;24864;49.940;19.770;2022-12-29T15:31:04;12.52;;;6.15;;
39128;SDS011;24864;49.940;19.770;2022-12-29T15:33:39;11.05;;;6.20;;
39128;SDS011;24864;49.940;19.770;2022-12-29T15:36:10;12.73;;;7.03;;
39128;SDS011;24864;49.940;19.770;2022-12-29T15:38:41;11.02;;;7.90;;